sensor_id;sensor_type;location;lat;lon;timestamp;pressure;altitude;pressure_sealevel;temperature;humidity
34482;BME280;20720;48.886;9.388;2023-03-19T00:00:52;98100.16;;;11.49;100.00
34482;BME280;20720;48.886;9.388;2023-03-19T00:03:17;98101.34;;;11.53;100.00
34482;BME280;20720;48.886;9.388;2023-03-19T00:05:49;98109.00;;;11.61;100.00
34482;BME280;20720;48.886;9.388;2023-03-19T00:08:14;98100.00;;;11.44;100.00
34482;BME280;20720;48.886;9.388;2023-03-19T00:10:39;98107.22;;;11.55;100.00
34482;BME280;20720;48.886;9.388;2023-03-19T00:13:04;98112.66;;;11.60;100.00
34482;BME280;20720;48.886;9.388;2023-03-19T00:15:31;98102.44;;;10.82;100.00
34482;BME280;20720;48.886;9.388;2023-03-19T00:17:56;98101.97;;;11.04;100.00
34482;BME280;20720;48.886;9.388;2023-03-19T00:20:21;98107.06;;;11.50;100.00
34482;BME280;20720;48.886;9.388;2023-03-19T00:22:46;98102.91;;;11.23;100.00
34482;BME280;20720;48.886;9.388;2023-03-19T00:25:11;98103.44;;;11.38;100.00
34482;BME280;20720;48.886;9.388;2023-03-19T00:27:37;98106.31;;;11.36;100.00
34482;BME280;20720;48.886;9.388;2023-03-19T00:30:03;98103.44;;;11.38;100.00
34482;BME280;20720;48.886;9.388;2023-03-19T00:32:28;98099.91;;;11.19;100.00
34482;BME280;20720;48.886;9.388;2023-03-19T00:34:54;98102.69;;;11.31;100.00
34482;BME280;20720;48.886;9.388;2023-03-19T00:37:19;98110.22;;;11.59;100.00
34482;BME280;20720;48.886;9.388;2023-03-19T00:39:44;98118.78;;;11.54;100.00
34482;BME280;20720;48.886;9.388;2023-03-19T00:42:09;98116.91;;;11.61;100.00
34482;BME280;20720;48.886;9.388;2023-03-19T00:44:34;98121.56;;;11.59;100.00
34482;BME280;20720;48.886;9.388;2023-03-19T00:47:00;98121.59;;;11.53;100.00
34482;BME280;20720;48.886;9.388;2023-03-19T00:49:25;98115.50;;;11.65;100.00
34482;BME280;20720;48.886;9.388;2023-03-19T00:51:51;98115.94;;;11.56;100.00
34482;BME280;20720;48.886;9.388;2023-03-19T00:54:16;98117.56;;;11.50;100.00
34482;BME280;20720;48.886;9.388;2023-03-19T00:56:41;98117.22;;;11.40;100.00
34482;BME280;20720;48.886;9.388;2023-03-19T00:59:07;98113.47;;;11.61;100.00
34482;BME280;20720;48.886;9.388;2023-03-19T01:01:32;98119.53;;;11.61;100.00
34482;BME280;20720;48.886;9.388;2023-03-19T01:03:57;98111.50;;;11.43;100.00
34482;BME280;20720;48.886;9.388;2023-03-19T01:06:23;98114.34;;;10.91;100.00
34482;BME280;20720;48.886;9.388;2023-03-19T01:08:48;98112.91;;;10.95;100.00
34482;BME280;20720;48.886;9.388;2023-03-19T01:11:13;98112.06;;;11.14;100.00
34482;BME280;20720;48.886;9.388;2023-03-19T01:13:39;98106.47;;;10.97;100.00
34482;BME280;20720;48.886;9.388;2023-03-19T01:16:05;98102.69;;;11.31;100.00
34482;BME280;20720;48.886;9.388;2023-03-19T01:18:31;98102.19;;;11.47;100.00
34482;BME280;20720;48.886;9.388;2023-03-19T01:20:56;98111.84;;;11.66;100.00
34482;BME280;20720;48.886;9.388;2023-03-19T01:23:21;98107.59;;;11.65;100.00
34482;BME280;20720;48.886;9.388;2023-03-19T01:25:47;98118.28;;;11.70;100.00
34482;BME280;20720;48.886;9.388;2023-03-19T01:28:12;98102.28;;;11.72;100.00
34482;BME280;20720;48.886;9.388;2023-03-19T01:30:37;98111.84;;;11.66;100.00
34482;BME280;20720;48.886;9.388;2023-03-19T01:33:04;98113.41;;;11.74;100.00
34482;BME280;20720;48.886;9.388;2023-03-19T01:35:30;98113.78;;;11.77;100.00
34482;BME280;20720;48.886;9.388;2023-03-19T01:37:55;98117.03;;;11.79;100.00
34482;BME280;20720;48.886;9.388;2023-03-19T01:40:20;98120.75;;;11.65;100.00
34482;BME280;20720;48.886;9.388;2023-03-19T01:42:52;98128.34;;;11.86;100.00
34482;BME280;20720;48.886;9.388;2023-03-19T01:45:31;98128.00;;;11.76;100.00
34482;BME280;20720;48.886;9.388;2023-03-19T01:47:56;98131.34;;;11.46;100.00
34482;BME280;20720;48.886;9.388;2023-03-19T01:50:43;98128.81;;;11.77;100.00
34482;BME280;20720;48.886;9.388;2023-03-19T01:53:08;98133.16;;;11.89;100.00
34482;BME280;20720;48.886;9.388;2023-03-19T01:55:34;98138.50;;;11.76;100.00
34482;BME280;20720;48.886;9.388;2023-03-19T01:58:00;98139.34;;;11.70;100.00
34482;BME280;20720;48.886;9.388;2023-03-19T02:00:26;98140.91;;;11.84;100.00
34482;BME280;20720;48.886;9.388;2023-03-19T02:02:52;98144.25;;;11.54;100.00
34482;BME280;20720;48.886;9.388;2023-03-19T02:05:18;98148.41;;;11.30;100.00
34482;BME280;20720;48.886;9.388;2023-03-19T02:07:49;98145.84;;;11.61;100.00
34482;BME280;20720;48.886;9.388;2023-03-19T02:10:16;98150.97;;;11.94;100.00
34482;BME280;20720;48.886;9.388;2023-03-19T02:12:42;98148.97;;;11.89;100.00
34482;BME280;20720;48.886;9.388;2023-03-19T02:15:07;98151.50;;;12.02;100.00
34482;BME280;20720;48.886;9.388;2023-03-19T02:20:40;98170.28;;;11.24;100.00
34482;BME280;20720;48.886;9.388;2023-03-19T02:28:10;98175.94;;;12.16;100.00
34482;BME280;20720;48.886;9.388;2023-03-19T02:30:37;98180.22;;;12.10;100.00
34482;BME280;20720;48.886;9.388;2023-03-19T02:33:02;98178.97;;;11.88;100.00
34482;BME280;20720;48.886;9.388;2023-03-19T02:35:29;98177.69;;;11.97;100.00
34482;BME280;20720;48.886;9.388;2023-03-19T02:37:55;98180.31;;;12.28;100.00
34482;BME280;20720;48.886;9.388;2023-03-19T02:40:25;98181.44;;;12.14;100.00
34482;BME280;20720;48.886;9.388;2023-03-19T02:42:51;98182.59;;;12.50;100.00
34482;BME280;20720;48.886;9.388;2023-03-19T02:45:16;98191.91;;;12.52;100.00
34482;BME280;20720;48.886;9.388;2023-03-19T02:47:42;98191.53;;;12.49;100.00
34482;BME280;20720;48.886;9.388;2023-03-19T02:50:07;98194.47;;;11.96;100.00
34482;BME280;20720;48.886;9.388;2023-03-19T02:52:33;98187.59;;;12.58;100.00
34482;BME280;20720;48.886;9.388;2023-03-19T02:54:58;98196.81;;;12.73;100.00
34482;BME280;20720;48.886;9.388;2023-03-19T02:57:23;98187.25;;;12.72;100.00
34482;BME280;20720;48.886;9.388;2023-03-19T02:59:49;98194.41;;;12.41;100.00
34482;BME280;20720;48.886;9.388;2023-03-19T03:02:14;98194.34;;;12.22;100.00
34482;BME280;20720;48.886;9.388;2023-03-19T03:04:39;98190.22;;;12.58;100.00
34482;BME280;20720;48.886;9.388;2023-03-19T03:07:05;98193.13;;;11.87;100.00
34482;BME280;20720;48.886;9.388;2023-03-19T03:09:31;98193.03;;;12.00;100.00
34482;BME280;20720;48.886;9.388;2023-03-19T03:11:56;98187.38;;;12.03;100.00
34482;BME280;20720;48.886;9.388;2023-03-19T03:14:21;98193.25;;;12.05;100.00
34482;BME280;20720;48.886;9.388;2023-03-19T03:16:47;98201.69;;;11.76;100.00
34482;BME280;20720;48.886;9.388;2023-03-19T03:19:12;98158.59;;;10.09;100.00
34482;BME280;20720;48.886;9.388;2023-03-19T03:21:38;98155.34;;;11.18;100.00
34482;BME280;20720;48.886;9.388;2023-03-19T03:24:03;98177.56;;;11.15;100.00
34482;BME280;20720;48.886;9.388;2023-03-19T03:26:29;98189.69;;;11.29;100.00
34482;BME280;20720;48.886;9.388;2023-03-19T03:28:54;98193.97;;;11.24;100.00
34482;BME280;20720;48.886;9.388;2023-03-19T03:31:19;98187.84;;;11.30;100.00
34482;BME280;20720;48.886;9.388;2023-03-19T03:33:45;98195.25;;;11.66;100.00
34482;BME280;20720;48.886;9.388;2023-03-19T03:36:10;98189.34;;;11.77;100.00
34482;BME280;20720;48.886;9.388;2023-03-19T03:38:36;98181.44;;;11.00;100.00
34482;BME280;20720;48.886;9.388;2023-03-19T03:41:01;98173.94;;;11.10;100.00
34482;BME280;20720;48.886;9.388;2023-03-19T03:43:27;98174.47;;;11.45;100.00
34482;BME280;20720;48.886;9.388;2023-03-19T03:45:52;98181.59;;;11.31;100.00
34482;BME280;20720;48.886;9.388;2023-03-19T03:48:18;98169.47;;;11.23;100.00
34482;BME280;20720;48.886;9.388;2023-03-19T03:50:43;98177.28;;;11.43;100.00
34482;BME280;20720;48.886;9.388;2023-03-19T03:53:08;98172.94;;;11.04;100.00
34482;BME280;20720;48.886;9.388;2023-03-19T03:55:34;98167.44;;;11.19;100.00
34482;BME280;20720;48.886;9.388;2023-03-19T03:57:59;98166.50;;;11.07;100.00
34482;BME280;20720;48.886;9.388;2023-03-19T04:00:25;98165.06;;;11.04;100.00
34482;BME280;20720;48.886;9.388;2023-03-19T04:02:50;98168.84;;;11.28;100.00
34482;BME280;20720;48.886;9.388;2023-03-19T04:05:15;98169.38;;;11.43;100.00
34482;BME280;20720;48.886;9.388;2023-03-19T04:07:41;98173.81;;;11.49;100.00
34482;BME280;20720;48.886;9.388;2023-03-19T04:10:07;98175.22;;;11.58;100.00
34482;BME280;20720;48.886;9.388;2023-03-19T04:12:33;98178.25;;;11.55;100.00
34482;BME280;20720;48.886;9.388;2023-03-19T04:14:59;98188.38;;;11.58;100.00
34482;BME280;20720;48.886;9.388;2023-03-19T04:17:24;98186.69;;;11.13;100.00
34482;BME280;20720;48.886;9.388;2023-03-19T04:19:50;98190.97;;;10.88;100.00
34482;BME280;20720;48.886;9.388;2023-03-19T04:22:15;98187.72;;;10.99;100.00
34482;BME280;20720;48.886;9.388;2023-03-19T04:24:40;98193.66;;;11.45;100.00
34482;BME280;20720;48.886;9.388;2023-03-19T04:27:06;98201.44;;;11.14;100.00
34482;BME280;20720;48.886;9.388;2023-03-19T04:29:31;98200.25;;;10.97;100.00
34482;BME280;20720;48.886;9.388;2023-03-19T04:31:56;98200.56;;;11.39;100.00
34482;BME280;20720;48.886;9.388;2023-03-19T04:34:22;98204.59;;;11.42;100.00
34482;BME280;20720;48.886;9.388;2023-03-19T04:36:47;98211.34;;;11.25;100.00
34482;BME280;20720;48.886;9.388;2023-03-19T04:39:12;98206.22;;;11.43;100.00
34482;BME280;20720;48.886;9.388;2023-03-19T04:41:38;98207.81;;;11.57;100.00
34482;BME280;20720;48.886;9.388;2023-03-19T04:44:03;98213.72;;;11.46;100.00
34482;BME280;20720;48.886;9.388;2023-03-19T04:46:29;98214.31;;;11.48;100.00
34482;BME280;20720;48.886;9.388;2023-03-19T04:48:54;98218.75;;;11.54;100.00
34482;BME280;20720;48.886;9.388;2023-03-19T04:51:20;98211.13;;;11.33;100.00
34482;BME280;20720;48.886;9.388;2023-03-19T04:53:45;98213.94;;;11.38;100.00
34482;BME280;20720;48.886;9.388;2023-03-19T04:56:11;98209.56;;;11.06;100.00
34482;BME280;20720;48.886;9.388;2023-03-19T04:58:36;98210.22;;;11.59;100.00
34482;BME280;20720;48.886;9.388;2023-03-19T05:01:01;98220.03;;;11.19;100.00
34482;BME280;20720;48.886;9.388;2023-03-19T05:03:27;98213.53;;;11.28;100.00
34482;BME280;20720;48.886;9.388;2023-03-19T05:05:53;98213.22;;;11.62;100.00
34482;BME280;20720;48.886;9.388;2023-03-19T05:08:19;98218.94;;;11.66;100.00
34482;BME280;20720;48.886;9.388;2023-03-19T05:10:44;98218.75;;;11.48;100.00
34482;BME280;20720;48.886;9.388;2023-03-19T05:13:09;98218.31;;;11.57;100.00
34482;BME280;20720;48.886;9.388;2023-03-19T05:15:35;98225.59;;;11.75;100.00
34482;BME280;20720;48.886;9.388;2023-03-19T05:18:00;98220.75;;;11.65;100.00
34482;BME280;20720;48.886;9.388;2023-03-19T05:20:25;98224.59;;;11.69;100.00
34482;BME280;20720;48.886;9.388;2023-03-19T05:22:51;98225.97;;;11.78;100.00
34482;BME280;20720;48.886;9.388;2023-03-19T05:25:16;98227.25;;;11.50;100.00
34482;BME280;20720;48.886;9.388;2023-03-19T05:27:43;98227.25;;;11.56;100.00
34482;BME280;20720;48.886;9.388;2023-03-19T05:30:08;98230.91;;;11.35;100.00
34482;BME280;20720;48.886;9.388;2023-03-19T05:32:33;98233.09;;;11.58;100.00
34482;BME280;20720;48.886;9.388;2023-03-19T05:34:59;98232.50;;;11.69;100.00
34482;BME280;20720;48.886;9.388;2023-03-19T05:37:24;98236.91;;;11.62;100.00
34482;BME280;20720;48.886;9.388;2023-03-19T05:39:50;98231.22;;;11.78;100.00
34482;BME280;20720;48.886;9.388;2023-03-19T05:42:15;98232.28;;;11.71;100.00
34482;BME280;20720;48.886;9.388;2023-03-19T05:44:41;98232.84;;;11.79;100.00
34482;BME280;20720;48.886;9.388;2023-03-19T05:47:06;98225.19;;;11.65;100.00
34482;BME280;20720;48.886;9.388;2023-03-19T05:49:32;98228.84;;;11.64;100.00
34482;BME280;20720;48.886;9.388;2023-03-19T05:51:57;98227.72;;;11.97;100.00
34482;BME280;20720;48.886;9.388;2023-03-19T05:54:23;98227.78;;;11.78;100.00
34482;BME280;20720;48.886;9.388;2023-03-19T05:56:48;98228.72;;;11.96;100.00
34482;BME280;20720;48.886;9.388;2023-03-19T05:59:13;98241.72;;;11.85;100.00
34482;BME280;20720;48.886;9.388;2023-03-19T06:01:39;98237.50;;;12.21;100.00
34482;BME280;20720;48.886;9.388;2023-03-19T06:04:04;98235.09;;;12.13;100.00
34482;BME280;20720;48.886;9.388;2023-03-19T06:06:30;98241.50;;;12.30;100.00
34482;BME280;20720;48.886;9.388;2023-03-19T06:08:55;98240.72;;;12.23;100.00
34482;BME280;20720;48.886;9.388;2023-03-19T06:11:20;98242.94;;;12.26;100.00
34482;BME280;20720;48.886;9.388;2023-03-19T06:13:46;98244.34;;;12.29;100.00
34482;BME280;20720;48.886;9.388;2023-03-19T06:16:11;98250.63;;;11.90;100.00
34482;BME280;20720;48.886;9.388;2023-03-19T06:18:36;98257.28;;;11.99;100.00
34482;BME280;20720;48.886;9.388;2023-03-19T06:21:02;98253.66;;;12.32;100.00
34482;BME280;20720;48.886;9.388;2023-03-19T06:23:27;98253.00;;;11.98;100.00
34482;BME280;20720;48.886;9.388;2023-03-19T06:25:53;98262.72;;;12.04;100.00
34482;BME280;20720;48.886;9.388;2023-03-19T06:28:18;98271.78;;;12.53;100.00
34482;BME280;20720;48.886;9.388;2023-03-19T06:30:43;98263.91;;;12.46;100.00
34482;BME280;20720;48.886;9.388;2023-03-19T06:33:09;98257.28;;;12.30;100.00
34482;BME280;20720;48.886;9.388;2023-03-19T06:35:34;98258.56;;;12.28;100.00
34482;BME280;20720;48.886;9.388;2023-03-19T06:37:59;98257.03;;;12.45;100.00
34482;BME280;20720;48.886;9.388;2023-03-19T06:40:24;98255.44;;;12.69;100.00
34482;BME280;20720;48.886;9.388;2023-03-19T06:42:50;98257.59;;;13.09;100.00
34482;BME280;20720;48.886;9.388;2023-03-19T06:45:16;98265.53;;;13.03;100.00
34482;BME280;20720;48.886;9.388;2023-03-19T06:47:42;98263.41;;;13.11;100.00
34482;BME280;20720;48.886;9.388;2023-03-19T06:50:09;98262.78;;;13.16;100.00
34482;BME280;20720;48.886;9.388;2023-03-19T06:52:34;98264.78;;;13.20;100.00
34482;BME280;20720;48.886;9.388;2023-03-19T06:54:59;98262.53;;;13.42;100.00
34482;BME280;20720;48.886;9.388;2023-03-19T06:57:25;98262.69;;;13.47;100.00
34482;BME280;20720;48.886;9.388;2023-03-19T06:59:50;98267.28;;;13.52;100.00
34482;BME280;20720;48.886;9.388;2023-03-19T07:02:15;98267.66;;;13.55;100.00
34482;BME280;20720;48.886;9.388;2023-03-19T07:04:41;98264.06;;;13.50;100.00
34482;BME280;20720;48.886;9.388;2023-03-19T07:07:06;98269.59;;;13.66;100.00
34482;BME280;20720;48.886;9.388;2023-03-19T07:09:31;98271.53;;;13.35;100.00
34482;BME280;20720;48.886;9.388;2023-03-19T07:11:56;98263.44;;;13.54;100.00
34482;BME280;20720;48.886;9.388;2023-03-19T07:14:22;98273.88;;;12.69;100.00
34482;BME280;20720;48.886;9.388;2023-03-19T07:16:47;98265.38;;;13.23;100.00
34482;BME280;20720;48.886;9.388;2023-03-19T07:19:12;98280.16;;;13.84;100.00
34482;BME280;20720;48.886;9.388;2023-03-19T07:21:37;98273.75;;;13.56;100.00
34482;BME280;20720;48.886;9.388;2023-03-19T07:24:03;98289.34;;;12.90;100.00
34482;BME280;20720;48.886;9.388;2023-03-19T07:26:28;98283.44;;;13.80;100.00
34482;BME280;20720;48.886;9.388;2023-03-19T07:28:53;98287.59;;;14.24;100.00
34482;BME280;20720;48.886;9.388;2023-03-19T07:31:18;98289.81;;;14.08;100.00
34482;BME280;20720;48.886;9.388;2023-03-19T07:33:44;98292.28;;;14.40;100.00
34482;BME280;20720;48.886;9.388;2023-03-19T07:36:09;98291.78;;;14.13;100.00
34482;BME280;20720;48.886;9.388;2023-03-19T07:38:35;98304.81;;;13.36;100.00
34482;BME280;20720;48.886;9.388;2023-03-19T07:41:00;98290.41;;;14.58;100.00
34482;BME280;20720;48.886;9.388;2023-03-19T07:43:25;98289.09;;;14.90;100.00
34482;BME280;20720;48.886;9.388;2023-03-19T07:45:50;98297.63;;;14.92;100.00
34482;BME280;20720;48.886;9.388;2023-03-19T07:48:15;98301.00;;;15.23;100.00
34482;BME280;20720;48.886;9.388;2023-03-19T07:50:41;98307.41;;;14.33;100.00
34482;BME280;20720;48.886;9.388;2023-03-19T07:53:06;98306.53;;;14.39;100.00
34482;BME280;20720;48.886;9.388;2023-03-19T07:55:32;98309.06;;;14.75;100.00
34482;BME280;20720;48.886;9.388;2023-03-19T07:57:57;98322.25;;;14.15;100.00
34482;BME280;20720;48.886;9.388;2023-03-19T08:00:22;98311.22;;;14.37;100.00
34482;BME280;20720;48.886;9.388;2023-03-19T08:02:47;98310.94;;;14.27;100.00
34482;BME280;20720;48.886;9.388;2023-03-19T08:05:12;98304.88;;;14.97;100.00
34482;BME280;20720;48.886;9.388;2023-03-19T08:07:38;98304.44;;;15.00;100.00
34482;BME280;20720;48.886;9.388;2023-03-19T08:10:04;98304.38;;;15.41;100.00
34482;BME280;20720;48.886;9.388;2023-03-19T08:12:29;98308.97;;;15.34;100.00
34482;BME280;20720;48.886;9.388;2023-03-19T08:14:55;98306.38;;;15.04;100.00
34482;BME280;20720;48.886;9.388;2023-03-19T08:17:20;98312.69;;;14.92;100.00
34482;BME280;20720;48.886;9.388;2023-03-19T08:19:46;98310.34;;;15.71;100.00
34482;BME280;20720;48.886;9.388;2023-03-19T08:22:11;98319.38;;;14.65;100.00
34482;BME280;20720;48.886;9.388;2023-03-19T08:24:37;98316.88;;;15.11;100.00
34482;BME280;20720;48.886;9.388;2023-03-19T08:27:02;98315.34;;;15.03;100.00
34482;BME280;20720;48.886;9.388;2023-03-19T08:29:27;98307.78;;;15.99;100.00
34482;BME280;20720;48.886;9.388;2023-03-19T08:31:53;98314.13;;;15.98;100.00
34482;BME280;20720;48.886;9.388;2023-03-19T08:34:20;98317.97;;;15.45;100.00
34482;BME280;20720;48.886;9.388;2023-03-19T08:36:46;98322.53;;;16.35;100.00
34482;BME280;20720;48.886;9.388;2023-03-19T08:39:11;98327.13;;;16.79;100.00
34482;BME280;20720;48.886;9.388;2023-03-19T08:41:36;98327.94;;;16.80;100.00
34482;BME280;20720;48.886;9.388;2023-03-19T08:44:01;98322.13;;;16.27;100.00
34482;BME280;20720;48.886;9.388;2023-03-19T08:46:27;98326.69;;;16.99;100.00
34482;BME280;20720;48.886;9.388;2023-03-19T08:48:53;98332.63;;;17.39;100.00
34482;BME280;20720;48.886;9.388;2023-03-19T08:51:18;98324.91;;;17.05;100.00
34482;BME280;20720;48.886;9.388;2023-03-19T08:53:43;98327.41;;;17.44;100.00
34482;BME280;20720;48.886;9.388;2023-03-19T08:56:08;98328.84;;;17.19;100.00
34482;BME280;20720;48.886;9.388;2023-03-19T08:58:33;98331.78;;;16.33;100.00
34482;BME280;20720;48.886;9.388;2023-03-19T09:01:02;98330.28;;;16.93;100.00
34482;BME280;20720;48.886;9.388;2023-03-19T09:03:28;98334.31;;;16.96;100.00
34482;BME280;20720;48.886;9.388;2023-03-19T09:05:56;98334.09;;;17.30;100.00
34482;BME280;20720;48.886;9.388;2023-03-19T09:08:21;98334.78;;;16.48;100.00
34482;BME280;20720;48.886;9.388;2023-03-19T09:10:47;98339.50;;;16.34;100.00
34482;BME280;20720;48.886;9.388;2023-03-19T09:13:12;98343.03;;;16.00;100.00
34482;BME280;20720;48.886;9.388;2023-03-19T09:15:37;98338.56;;;16.52;100.00
34482;BME280;20720;48.886;9.388;2023-03-19T09:18:02;98346.47;;;16.63;100.00
34482;BME280;20720;48.886;9.388;2023-03-19T09:20:28;98346.75;;;16.78;100.00
34482;BME280;20720;48.886;9.388;2023-03-19T09:22:53;98356.75;;;16.88;100.00
34482;BME280;20720;48.886;9.388;2023-03-19T09:25:18;98352.03;;;17.23;98.63
34482;BME280;20720;48.886;9.388;2023-03-19T09:27:43;98347.13;;;17.15;100.00
34482;BME280;20720;48.886;9.388;2023-03-19T09:30:08;98351.31;;;17.77;94.09
34482;BME280;20720;48.886;9.388;2023-03-19T09:32:34;98348.16;;;19.84;84.20
34482;BME280;20720;48.886;9.388;2023-03-19T09:35:00;98349.84;;;18.46;88.91
34482;BME280;20720;48.886;9.388;2023-03-19T09:37:25;98354.28;;;18.41;89.53
34482;BME280;20720;48.886;9.388;2023-03-19T09:39:50;98355.63;;;18.87;85.30
34482;BME280;20720;48.886;9.388;2023-03-19T09:44:50;98352.00;;;20.54;76.74
34482;BME280;20720;48.886;9.388;2023-03-19T09:47:35;98352.00;;;22.35;70.41
34482;BME280;20720;48.886;9.388;2023-03-19T09:50:02;98355.09;;;21.03;62.27
34482;BME280;20720;48.886;9.388;2023-03-19T09:54:55;98344.84;;;20.08;65.20
34482;BME280;20720;48.886;9.388;2023-03-19T09:57:22;98343.88;;;21.06;62.63
34482;BME280;20720;48.886;9.388;2023-03-19T09:59:47;98346.44;;;20.76;60.87
34482;BME280;20720;48.886;9.388;2023-03-19T10:04:55;98344.81;;;20.60;62.33
34482;BME280;20720;48.886;9.388;2023-03-19T10:10:02;98345.47;;;21.12;59.73
34482;BME280;20720;48.886;9.388;2023-03-19T10:17:37;98332.59;;;21.90;57.11
34482;BME280;20720;48.886;9.388;2023-03-19T10:20:04;98340.31;;;20.81;57.83
34482;BME280;20720;48.886;9.388;2023-03-19T10:22:37;98336.41;;;21.53;57.49
34482;BME280;20720;48.886;9.388;2023-03-19T10:25:04;98330.47;;;21.97;52.40
34482;BME280;20720;48.886;9.388;2023-03-19T10:27:34;98326.56;;;22.87;50.15
34482;BME280;20720;48.886;9.388;2023-03-19T10:30:01;98331.88;;;22.48;49.81
34482;BME280;20720;48.886;9.388;2023-03-19T10:35:22;98319.75;;;20.81;52.89
34482;BME280;20720;48.886;9.388;2023-03-19T10:37:48;98324.56;;;21.95;50.62
34482;BME280;20720;48.886;9.388;2023-03-19T10:40:23;98318.34;;;22.73;47.33
34482;BME280;20720;48.886;9.388;2023-03-19T10:43:00;98316.59;;;22.97;47.27
34482;BME280;20720;48.886;9.388;2023-03-19T10:45:37;98318.19;;;21.50;48.92
34482;BME280;20720;48.886;9.388;2023-03-19T10:48:03;98314.38;;;22.02;48.91
34482;BME280;20720;48.886;9.388;2023-03-19T10:50:33;98306.38;;;23.04;46.03
34482;BME280;20720;48.886;9.388;2023-03-19T10:55:30;98302.19;;;22.88;48.56
34482;BME280;20720;48.886;9.388;2023-03-19T10:58:00;98311.22;;;22.54;48.31
34482;BME280;20720;48.886;9.388;2023-03-19T11:00:27;98309.66;;;21.18;49.48
34482;BME280;20720;48.886;9.388;2023-03-19T11:02:56;98299.13;;;22.66;49.00
34482;BME280;20720;48.886;9.388;2023-03-19T11:05:22;98301.88;;;21.62;49.42
34482;BME280;20720;48.886;9.388;2023-03-19T11:07:49;98301.13;;;21.06;52.86
34482;BME280;20720;48.886;9.388;2023-03-19T11:10:15;98303.25;;;21.34;52.26
34482;BME280;20720;48.886;9.388;2023-03-19T11:12:41;98299.78;;;21.09;52.48
34482;BME280;20720;48.886;9.388;2023-03-19T11:15:56;98299.97;;;21.73;53.47
34482;BME280;20720;48.886;9.388;2023-03-19T11:18:04;98299.06;;;22.12;51.52
34482;BME280;20720;48.886;9.388;2023-03-19T11:20:34;98301.09;;;20.91;55.17
34482;BME280;20720;48.886;9.388;2023-03-19T11:23:01;98290.13;;;20.93;55.27
34482;BME280;20720;48.886;9.388;2023-03-19T11:25:37;98291.16;;;21.67;53.72
34482;BME280;20720;48.886;9.388;2023-03-19T11:30:35;98283.91;;;21.73;54.60
34482;BME280;20720;48.886;9.388;2023-03-19T11:33:07;98280.25;;;20.98;54.62
34482;BME280;20720;48.886;9.388;2023-03-19T11:35:43;98291.75;;;22.38;52.64
34482;BME280;20720;48.886;9.388;2023-03-19T11:38:17;98294.34;;;22.97;52.25
34482;BME280;20720;48.886;9.388;2023-03-19T11:41:00;98285.91;;;22.26;54.05
34482;BME280;20720;48.886;9.388;2023-03-19T11:45:59;98279.56;;;22.12;54.70
34482;BME280;20720;48.886;9.388;2023-03-19T11:48:38;98275.19;;;21.27;54.99
34482;BME280;20720;48.886;9.388;2023-03-19T11:51:08;98272.94;;;21.79;54.44
34482;BME280;20720;48.886;9.388;2023-03-19T11:53:54;98267.94;;;21.52;54.41
34482;BME280;20720;48.886;9.388;2023-03-19T12:01:43;98264.88;;;23.83;49.13
34482;BME280;20720;48.886;9.388;2023-03-19T12:04:21;98254.66;;;24.88;47.50
34482;BME280;20720;48.886;9.388;2023-03-19T12:07:05;98251.94;;;24.69;46.59
34482;BME280;20720;48.886;9.388;2023-03-19T12:09:40;98250.16;;;22.56;48.43
34482;BME280;20720;48.886;9.388;2023-03-19T12:12:15;98243.47;;;22.04;49.37
34482;BME280;20720;48.886;9.388;2023-03-19T12:20:52;98247.69;;;21.11;52.42
34482;BME280;20720;48.886;9.388;2023-03-19T12:23:05;98251.91;;;20.97;53.80
34482;BME280;20720;48.886;9.388;2023-03-19T12:30:35;98228.56;;;23.67;47.41
34482;BME280;20720;48.886;9.388;2023-03-19T12:33:09;98231.69;;;23.21;47.85
34482;BME280;20720;48.886;9.388;2023-03-19T12:35:36;98233.50;;;22.20;49.92
34482;BME280;20720;48.886;9.388;2023-03-19T12:38:04;98230.06;;;23.54;47.83
34482;BME280;20720;48.886;9.388;2023-03-19T12:40:35;98222.00;;;22.63;46.64
34482;BME280;20720;48.886;9.388;2023-03-19T12:43:02;98222.94;;;22.77;46.45
34482;BME280;20720;48.886;9.388;2023-03-19T12:45:31;98230.97;;;21.80;48.81
34482;BME280;20720;48.886;9.388;2023-03-19T12:48:06;98238.28;;;20.84;52.06
34482;BME280;20720;48.886;9.388;2023-03-19T12:50:33;98220.91;;;22.98;48.43
34482;BME280;20720;48.886;9.388;2023-03-19T12:53:01;98230.94;;;21.90;48.48
34482;BME280;20720;48.886;9.388;2023-03-19T12:55:34;98222.94;;;21.85;49.84
34482;BME280;20720;48.886;9.388;2023-03-19T12:58:11;98217.41;;;22.69;49.19
34482;BME280;20720;48.886;9.388;2023-03-19T13:00:47;98220.53;;;21.78;49.64
34482;BME280;20720;48.886;9.388;2023-03-19T13:06:03;98219.81;;;22.16;47.56
34482;BME280;20720;48.886;9.388;2023-03-19T13:08:47;98214.53;;;21.22;51.79
34482;BME280;20720;48.886;9.388;2023-03-19T13:11:20;98220.06;;;21.56;50.87
34482;BME280;20720;48.886;9.388;2023-03-19T13:13:50;98208.56;;;21.61;49.64
34482;BME280;20720;48.886;9.388;2023-03-19T13:16:29;98218.28;;;21.21;50.62
34482;BME280;20720;48.886;9.388;2023-03-19T13:19:00;98220.78;;;21.77;51.17
34482;BME280;20720;48.886;9.388;2023-03-19T13:21:29;98232.09;;;20.33;56.81
34482;BME280;20720;48.886;9.388;2023-03-19T13:24:03;98227.09;;;19.33;66.79
34482;BME280;20720;48.886;9.388;2023-03-19T13:26:33;98230.31;;;19.35;69.76
34482;BME280;20720;48.886;9.388;2023-03-19T13:29:07;98236.34;;;19.62;71.07
34482;BME280;20720;48.886;9.388;2023-03-19T13:31:33;98231.28;;;19.65;73.04
34482;BME280;20720;48.886;9.388;2023-03-19T13:34:13;98227.22;;;19.16;74.61
34482;BME280;20720;48.886;9.388;2023-03-19T13:36:42;98233.94;;;19.24;74.90
34482;BME280;20720;48.886;9.388;2023-03-19T13:39:16;98240.25;;;19.13;75.45
34482;BME280;20720;48.886;9.388;2023-03-19T13:44:29;98265.97;;;17.96;80.85
34482;BME280;20720;48.886;9.388;2023-03-19T13:47:35;98277.78;;;16.95;92.11